Time;durP1;ratioP1;P1;durP2;ratioP2;P2;SDS_P1;SDS_P2;PMS_P1;PMS_P2;Temp;Humidity;BMP_temperature;BMP_pressure;BME280_temperature;BME280_humidity;BME280_pressure;Samples;Min_cycle;Max_cycle;Signal;HPM_P1;HPM_P2
2022/02/28 00:01:28;;;;;;;0.70;0.70;;;1.40;99.90;;;;;;4442928;32;20521;-65
2022/02/28 00:03:55;;;;;;;0.62;0.62;;;1.50;99.90;;;;;;4442632;32;20064;-65
2022/02/28 00:06:21;;;;;;;0.70;0.70;;;1.50;99.90;;;;;;4436044;32;20072;-65
2022/02/28 00:08:47;;;;;;;4.65;1.23;;;1.60;99.90;;;;;;4443649;32;20069;-65
2022/02/28 00:11:13;;;;;;;0.47;0.47;;;1.60;99.90;;;;;;4429210;32;20135;-65
2022/02/28 00:16:08;;;;;;;0.60;0.60;;;1.50;99.90;;;;;;4442976;32;20073;-65
2022/02/28 00:18:34;;;;;;;0.95;0.95;;;1.50;99.90;;;;;;4439632;32;20085;-65
2022/02/28 00:21:00;;;;;;;0.50;0.50;;;1.50;99.90;;;;;;4426456;32;20058;-65
2022/02/28 00:23:26;;;;;;;1.05;1.05;;;1.60;99.90;;;;;;4443268;32;20135;-65
2022/02/28 00:25:52;;;;;;;1.42;1.33;;;1.60;99.90;;;;;;4441577;32;20422;-65
2022/02/28 00:28:18;;;;;;;0.43;0.43;;;1.60;99.90;;;;;;4444350;32;20123;-65
2022/02/28 00:30:43;;;;;;;0.75;0.75;;;1.50;99.90;;;;;;4435883;32;20082;-65
2022/02/28 00:33:09;;;;;;;4.18;0.88;;;1.50;99.90;;;;;;4438791;32;20085;-65
2022/02/28 00:35:36;;;;;;;0.50;0.50;;;1.50;99.90;;;;;;4443371;32;20064;-65
2022/02/28 00:38:02;;;;;;;2.47;1.52;;;1.50;99.90;;;;;;4443452;32;20454;-65
2022/02/28 00:40:28;;;;;;;0.88;0.88;;;1.50;99.90;;;;;;4438668;32;20157;-65
2022/02/28 00:42:53;;;;;;;21.40;1.20;;;1.60;99.90;;;;;;4442640;32;20057;-65
2022/02/28 00:45:18;;;;;;;0.98;0.90;;;1.50;99.90;;;;;;4439303;32;20101;-65
2022/02/28 00:47:44;;;;;;;2.03;1.05;;;1.60;99.90;;;;;;4435758;32;20135;-65
2022/02/28 00:50:11;;;;;;;0.60;0.60;;;1.60;99.90;;;;;;4440191;32;20498;-65
2022/02/28 00:52:37;;;;;;;0.62;0.62;;;1.50;99.90;;;;;;4450240;32;20120;-65
2022/02/28 00:55:03;;;;;;;0.52;0.52;;;1.60;99.90;;;;;;4456672;32;20477;-65
2022/02/28 00:57:29;;;;;;;5.18;2.37;;;1.70;99.90;;;;;;4430159;32;20123;-65
2022/02/28 00:59:54;;;;;;;0.70;0.70;;;1.60;99.90;;;;;;4445027;32;20065;-65
2022/02/28 01:02:20;;;;;;;0.80;0.80;;;1.60;99.90;;;;;;4441582;32;20557;-65
2022/02/28 01:04:46;;;;;;;0.50;0.50;;;1.50;99.90;;;;;;4451178;32;20122;-65
2022/02/28 01:07:12;;;;;;;2.40;1.83;;;1.50;99.90;;;;;;4450696;32;20141;-65
2022/02/28 01:09:37;;;;;;;1.95;1.17;;;1.70;99.90;;;;;;4446330;32;20429;-65
2022/02/28 01:12:06;;;;;;;2.47;0.95;;;1.60;99.90;;;;;;4447696;32;20068;-65
2022/02/28 01:14:31;;;;;;;1.33;1.25;;;1.60;99.90;;;;;;4449770;32;20610;-65
2022/02/28 01:16:57;;;;;;;0.90;0.90;;;1.60;99.90;;;;;;4446334;32;20064;-65
2022/02/28 01:19:22;;;;;;;2.60;0.85;;;1.70;99.90;;;;;;4441827;32;20164;-65
2022/02/28 01:21:48;;;;;;;2.30;1.67;;;1.70;99.90;;;;;;4442464;32;20065;-65
2022/02/28 01:24:14;;;;;;;0.93;0.93;;;1.70;99.90;;;;;;4448991;32;20077;-65
2022/02/28 01:26:40;;;;;;;0.80;0.80;;;1.70;99.90;;;;;;4438710;32;20080;-64
2022/02/28 01:29:06;;;;;;;2.05;1.85;;;1.70;99.90;;;;;;4440980;32;20061;-64
2022/02/28 01:31:31;;;;;;;0.60;0.60;;;1.70;99.90;;;;;;4438466;32;20117;-64
2022/02/28 01:33:57;;;;;;;0.80;0.80;;;1.90;99.90;;;;;;4438552;32;20599;-64
2022/02/28 01:36:22;;;;;;;0.70;0.70;;;1.90;99.90;;;;;;4442054;32;20072;-65
2022/02/28 01:38:48;;;;;;;28.05;2.85;;;1.90;99.90;;;;;;4442840;32;20078;-65
2022/02/28 01:41:14;;;;;;;0.85;0.85;;;1.90;99.90;;;;;;4439770;32;20576;-65
2022/02/28 01:43:39;;;;;;;1.75;1.55;;;1.80;99.90;;;;;;4442446;32;20076;-65
2022/02/28 01:46:05;;;;;;;1.02;1.02;;;1.80;99.90;;;;;;4442175;32;20564;-66
2022/02/28 01:48:30;;;;;;;7.90;1.60;;;1.90;99.90;;;;;;4441673;32;20086;-66
2022/02/28 01:50:56;;;;;;;0.95;0.93;;;1.90;99.90;;;;;;4451807;32;20069;-66
2022/02/28 01:53:21;;;;;;;4.00;1.77;;;1.90;99.90;;;;;;4443431;32;20078;-66
2022/02/28 01:55:47;;;;;;;1.35;1.25;;;1.90;99.90;;;;;;4458773;32;20131;-66
2022/02/28 01:58:13;;;;;;;4.22;1.25;;;1.80;99.90;;;;;;4442144;32;20111;-65
2022/02/28 02:00:38;;;;;;;0.95;0.95;;;1.70;99.90;;;;;;4427996;32;20093;-65
2022/02/28 02:03:04;;;;;;;5.40;2.67;;;1.60;99.90;;;;;;4450111;32;20488;-65
2022/02/28 02:05:30;;;;;;;2.10;1.90;;;1.60;99.90;;;;;;4448553;32;20084;-65
2022/02/28 02:07:57;;;;;;;0.95;0.95;;;1.70;99.90;;;;;;4442987;32;20514;-65
2022/02/28 02:10:22;;;;;;;5.10;1.58;;;1.70;99.90;;;;;;4441271;32;20081;-65
2022/02/28 02:12:48;;;;;;;3.83;2.03;;;1.80;99.90;;;;;;4448982;32;20401;-66
2022/02/28 02:15:15;;;;;;;1.48;1.10;;;2.10;99.90;;;;;;4442581;32;20069;-66
2022/02/28 02:17:41;;;;;;;2.17;1.10;;;2.10;99.90;;;;;;4441419;32;20143;-65
2022/02/28 02:20:09;;;;;;;0.85;0.85;;;1.90;99.90;;;;;;4444481;32;20069;-65
2022/02/28 02:22:35;;;;;;;2.28;2.08;;;1.90;99.90;;;;;;4448145;32;20068;-65
2022/02/28 02:25:01;;;;;;;0.70;0.70;;;1.80;99.90;;;;;;4450970;32;20069;-65
2022/02/28 02:27:27;;;;;;;4.22;1.55;;;1.60;99.90;;;;;;4441709;32;20081;-65
2022/02/28 02:29:53;;;;;;;2.33;2.12;;;1.50;99.90;;;;;;4445755;32;21410;-65
2022/02/28 02:32:19;;;;;;;2.10;1.52;;;1.40;99.90;;;;;;4443882;32;20068;-65
2022/02/28 02:34:45;;;;;;;4.12;1.52;;;1.40;99.90;;;;;;4454359;32;20175;-65
2022/02/28 02:37:11;;;;;;;1.20;1.17;;;1.50;99.90;;;;;;4439687;32;20066;-65
2022/02/28 02:39:40;;;;;;;4.95;1.12;;;1.60;99.90;;;;;;4437855;32;20065;-65
2022/02/28 02:42:06;;;;;;;1.20;1.20;;;1.60;99.90;;;;;;4444320;32;20509;-65
2022/02/28 02:44:34;;;;;;;4.07;2.22;;;1.60;99.90;;;;;;4435558;32;20052;-65
2022/02/28 02:47:00;;;;;;;1.02;1.00;;;1.70;99.90;;;;;;4443239;32;20127;-65
2022/02/28 02:49:25;;;;;;;1.40;1.12;;;1.80;99.90;;;;;;4442427;32;20053;-65
2022/02/28 02:51:51;;;;;;;2.20;2.00;;;1.80;99.90;;;;;;4440704;32;20061;-65
2022/02/28 02:54:16;;;;;;;0.60;0.60;;;1.80;99.90;;;;;;4443675;32;20138;-65
2022/02/28 02:56:42;;;;;;;0.50;0.50;;;1.80;99.90;;;;;;4440117;32;20056;-65
2022/02/28 02:59:07;;;;;;;6.90;2.28;;;1.70;99.90;;;;;;4448113;32;20604;-65
2022/02/28 03:01:33;;;;;;;3.35;1.80;;;1.70;99.90;;;;;;4442855;32;20123;-65
2022/02/28 03:03:59;;;;;;;3.97;2.22;;;1.80;99.90;;;;;;4445676;32;20064;-65
2022/02/28 03:06:26;;;;;;;1.25;1.15;;;1.80;99.90;;;;;;4442034;32;20727;-65
2022/02/28 03:08:52;;;;;;;2.50;1.52;;;1.80;99.90;;;;;;4431283;32;20073;-65
2022/02/28 03:11:18;;;;;;;1.23;1.20;;;1.80;99.90;;;;;;4444689;32;20469;-65
2022/02/28 03:13:43;;;;;;;9.23;2.37;;;1.80;99.90;;;;;;4440766;32;20073;-65
2022/02/28 03:16:09;;;;;;;3.83;2.30;;;1.80;99.90;;;;;;4441702;32;20077;-65
2022/02/28 03:18:34;;;;;;;2.37;1.08;;;1.80;99.90;;;;;;4447119;32;20061;-66
2022/02/28 03:21:00;;;;;;;1.08;1.08;;;1.80;99.90;;;;;;4446284;32;20068;-66
2022/02/28 03:23:26;;;;;;;1.05;1.05;;;1.80;99.90;;;;;;4443413;32;20473;-66
2022/02/28 03:25:53;;;;;;;3.50;1.90;;;1.80;99.90;;;;;;4443448;32;20416;-66
2022/02/28 03:28:19;;;;;;;1.15;1.15;;;1.90;99.90;;;;;;4444290;32;20069;-65
2022/02/28 03:30:45;;;;;;;4.05;2.83;;;1.80;99.90;;;;;;4437657;32;20057;-65
2022/02/28 03:33:10;;;;;;;4.60;1.25;;;1.80;99.90;;;;;;4433712;32;20074;-65
2022/02/28 03:35:36;;;;;;;2.03;1.77;;;1.60;99.90;;;;;;4428858;32;20164;-65
2022/02/28 03:38:02;;;;;;;0.55;0.55;;;1.60;99.90;;;;;;4438043;32;20073;-65
2022/02/28 03:40:27;;;;;;;1.37;1.27;;;1.60;99.90;;;;;;4442898;32;20085;-66
2022/02/28 03:42:55;;;;;;;1.75;1.15;;;1.50;99.90;;;;;;4442718;32;20072;-65
2022/02/28 03:45:21;;;;;;;0.90;0.90;;;1.40;99.90;;;;;;4444638;32;20060;-65
2022/02/28 03:47:46;;;;;;;1.65;1.05;;;1.30;99.90;;;;;;4439056;32;20130;-66
2022/02/28 03:50:12;;;;;;;1.37;1.27;;;1.30;99.90;;;;;;4442607;32;20065;-66
2022/02/28 03:52:37;;;;;;;1.17;1.15;;;1.50;99.90;;;;;;4441043;32;20069;-66
2022/02/28 03:55:04;;;;;;;2.03;1.85;;;1.50;99.90;;;;;;4439518;32;20081;-66
2022/02/28 03:57:29;;;;;;;1.02;0.95;;;1.60;99.90;;;;;;4433877;32;20115;-66
2022/02/28 03:59:55;;;;;;;0.80;0.80;;;1.50;99.90;;;;;;4438331;32;20072;-66
2022/02/28 04:02:21;;;;;;;2.60;0.95;;;1.50;99.90;;;;;;4434384;32;20081;-66
2022/02/28 04:04:46;;;;;;;1.20;0.98;;;1.60;99.90;;;;;;4429841;32;20108;-66
2022/02/28 04:07:12;;;;;;;1.10;1.05;;;1.50;99.90;;;;;;4444316;32;20514;-66
2022/02/28 04:09:39;;;;;;;0.60;0.60;;;1.50;99.90;;;;;;4443977;32;20073;-66
2022/02/28 04:12:05;;;;;;;0.95;0.68;;;1.50;99.90;;;;;;4447997;32;20124;-66
2022/02/28 04:14:31;;;;;;;0.77;0.77;;;1.50;99.90;;;;;;4445638;32;20092;-66
2022/02/28 04:16:57;;;;;;;1.00;1.00;;;1.50;99.90;;;;;;4447966;32;20068;-66
2022/02/28 04:19:22;;;;;;;0.90;0.90;;;1.50;99.90;;;;;;4454041;32;20082;-66
2022/02/28 04:21:48;;;;;;;1.95;1.25;;;1.60;99.90;;;;;;4450720;32;20065;-66
2022/02/28 04:24:13;;;;;;;2.30;1.58;;;1.60;99.90;;;;;;4444906;32;20117;-66
2022/02/28 04:26:40;;;;;;;0.70;0.70;;;1.60;99.90;;;;;;4444338;32;20073;-66
2022/02/28 04:29:05;;;;;;;2.90;2.30;;;1.60;99.90;;;;;;4453647;32;20453;-66
2022/02/28 04:31:31;;;;;;;1.27;1.23;;;1.60;99.90;;;;;;4430106;32;20076;-66
2022/02/28 04:33:56;;;;;;;0.88;0.88;;;1.70;99.90;;;;;;4442776;32;20064;-66
2022/02/28 04:36:22;;;;;;;0.50;0.50;;;1.60;99.90;;;;;;4443633;32;20069;-66
2022/02/28 04:38:47;;;;;;;1.35;1.25;;;1.60;99.90;;;;;;4443835;32;20073;-66
2022/02/28 04:41:13;;;;;;;0.70;0.70;;;1.60;99.90;;;;;;4435889;32;20104;-65
2022/02/28 04:43:38;;;;;;;1.75;1.12;;;1.60;99.90;;;;;;4442888;32;20070;-65
2022/02/28 04:46:04;;;;;;;1.85;1.73;;;1.60;99.90;;;;;;4442699;32;20590;-65
2022/02/28 04:48:30;;;;;;;0.90;0.85;;;1.50;99.90;;;;;;4443001;32;20081;-65
2022/02/28 04:50:55;;;;;;;0.75;0.75;;;1.40;99.90;;;;;;4431842;32;20061;-65
2022/02/28 04:53:22;;;;;;;3.10;1.12;;;1.40;99.90;;;;;;4442683;32;20072;-65
2022/02/28 04:55:49;;;;;;;0.80;0.80;;;1.40;99.90;;;;;;4439366;32;20060;-65
2022/02/28 04:58:15;;;;;;;0.60;0.60;;;1.50;99.90;;;;;;4428769;32;20494;-65
2022/02/28 05:00:40;;;;;;;0.73;0.73;;;1.50;99.90;;;;;;4435728;32;20089;-65
2022/02/28 05:03:06;;;;;;;1.77;1.48;;;1.40;99.90;;;;;;4443683;32;20061;-65
2022/02/28 05:05:31;;;;;;;2.37;1.10;;;1.40;99.90;;;;;;4440159;32;20064;-65
2022/02/28 05:07:57;;;;;;;3.60;1.80;;;1.40;99.90;;;;;;4439911;32;20065;-65
2022/02/28 05:10:23;;;;;;;0.75;0.75;;;1.50;99.90;;;;;;4443529;32;20509;-65
2022/02/28 05:12:49;;;;;;;1.05;0.98;;;1.60;99.90;;;;;;4443354;32;20064;-65
2022/02/28 05:15:14;;;;;;;0.80;0.80;;;1.60;99.90;;;;;;4441930;32;20080;-66
2022/02/28 05:17:40;;;;;;;0.70;0.70;;;1.60;99.90;;;;;;4431012;32;20090;-66
2022/02/28 05:20:06;;;;;;;0.60;0.60;;;1.60;99.90;;;;;;4439858;32;20081;-66
2022/02/28 05:22:32;;;;;;;0.95;0.88;;;1.50;99.90;;;;;;4433724;32;20076;-65
2022/02/28 05:24:57;;;;;;;1.75;1.33;;;1.40;99.90;;;;;;4435555;32;20128;-65
2022/02/28 05:27:22;;;;;;;1.10;1.10;;;1.30;99.90;;;;;;4434038;32;20380;-65
2022/02/28 05:29:48;;;;;;;4.28;1.95;;;1.30;99.90;;;;;;4439564;32;20565;-66
2022/02/28 05:32:14;;;;;;;1.95;1.00;;;1.30;99.90;;;;;;4441848;32;20061;-66
2022/02/28 05:34:39;;;;;;;0.60;0.60;;;1.40;99.90;;;;;;4435819;32;20090;-66
2022/02/28 05:37:05;;;;;;;0.70;0.70;;;1.40;99.90;;;;;;4436567;32;20094;-66
2022/02/28 05:39:30;;;;;;;9.10;1.12;;;1.40;99.90;;;;;;4442809;32;20089;-65
2022/02/28 05:41:55;;;;;;;0.98;0.95;;;1.50;99.90;;;;;;4440752;32;20076;-65
2022/02/28 05:44:21;;;;;;;2.08;1.40;;;1.50;99.90;;;;;;4431079;32;20464;-65
2022/02/28 05:46:46;;;;;;;0.65;0.65;;;1.50;99.90;;;;;;4441328;32;20073;-65
2022/02/28 05:49:12;;;;;;;8.93;1.80;;;1.50;99.90;;;;;;4435620;32;20061;-65
2022/02/28 05:51:37;;;;;;;3.03;1.95;;;1.40;99.90;;;;;;4442041;32;20073;-65
2022/02/28 05:54:03;;;;;;;0.98;0.98;;;1.30;99.90;;;;;;4439002;32;20490;-66
2022/02/28 05:56:29;;;;;;;1.95;0.85;;;1.40;99.90;;;;;;4434349;32;20061;-66
2022/02/28 05:58:56;;;;;;;0.68;0.68;;;1.40;99.90;;;;;;4448202;32;20076;-66
2022/02/28 06:01:22;;;;;;;0.75;0.75;;;1.40;99.90;;;;;;4417447;32;20053;-66
2022/02/28 06:03:47;;;;;;;0.75;0.75;;;1.40;99.90;;;;;;4437386;32;20651;-66
2022/02/28 06:06:13;;;;;;;0.73;0.70;;;1.40;99.90;;;;;;4437279;32;20081;-66
2022/02/28 06:08:39;;;;;;;0.82;0.82;;;1.30;99.90;;;;;;4436939;32;20428;-66
2022/02/28 06:11:05;;;;;;;1.05;0.57;;;1.20;99.90;;;;;;4442284;32;20056;-65
2022/02/28 06:13:30;;;;;;;4.03;2.17;;;1.40;99.90;;;;;;4436906;32;20068;-65
2022/02/28 06:15:56;;;;;;;0.85;0.85;;;1.40;99.90;;;;;;4436810;32;20069;-65
2022/02/28 06:18:21;;;;;;;0.45;0.45;;;1.40;99.90;;;;;;4424377;32;20117;-65
2022/02/28 06:20:47;;;;;;;0.62;0.62;;;1.40;99.90;;;;;;4439351;32;20129;-65
2022/02/28 06:23:15;;;;;;;0.82;0.82;;;1.40;99.90;;;;;;4443069;32;20056;-65
2022/02/28 06:25:42;;;;;;;0.95;0.95;;;1.40;99.90;;;;;;4442091;32;20080;-65
2022/02/28 06:28:10;;;;;;;1.30;1.02;;;1.40;99.90;;;;;;4428232;32;20081;-65
2022/02/28 06:30:36;;;;;;;0.50;0.50;;;1.40;99.90;;;;;;4424780;32;20131;-65
2022/02/28 06:33:02;;;;;;;0.70;0.70;;;1.40;99.90;;;;;;4417592;32;20116;-65
2022/02/28 06:35:28;;;;;;;1.75;1.40;;;1.50;99.90;;;;;;4436188;32;20198;-65
2022/02/28 06:37:54;;;;;;;1.12;0.95;;;1.60;99.90;;;;;;4429650;32;20073;-64
2022/02/28 06:40:22;;;;;;;0.57;0.57;;;1.50;99.90;;;;;;4435092;32;20061;-65
2022/02/28 06:42:47;;;;;;;1.17;0.88;;;1.50;99.90;;;;;;4437363;32;20064;-65
2022/02/28 06:45:13;;;;;;;1.20;1.00;;;1.50;99.90;;;;;;4434536;32;20065;-65
2022/02/28 06:47:39;;;;;;;3.08;1.40;;;1.60;99.90;;;;;;4425330;32;20442;-65
2022/02/28 06:50:05;;;;;;;17.65;1.90;;;1.70;99.90;;;;;;4438065;32;20117;-65
2022/02/28 06:52:31;;;;;;;1.60;1.50;;;1.70;99.90;;;;;;4432122;32;20536;-65
2022/02/28 06:54:56;;;;;;;1.25;1.23;;;1.70;99.90;;;;;;4433206;32;20077;-65
2022/02/28 06:57:24;;;;;;;0.85;0.85;;;1.80;99.90;;;;;;4431359;32;20514;-64
2022/02/28 06:59:49;;;;;;;1.87;1.15;;;1.80;99.90;;;;;;4429856;32;20611;-65
2022/02/28 07:02:15;;;;;;;0.70;0.70;;;1.70;99.90;;;;;;4428655;32;20096;-65
2022/02/28 07:04:40;;;;;;;1.00;0.93;;;1.60;99.90;;;;;;4433316;32;20147;-64
2022/02/28 07:07:06;;;;;;;1.95;1.25;;;1.60;99.90;;;;;;4428285;32;20086;-64
2022/02/28 07:09:33;;;;;;;1.35;1.25;;;1.70;99.90;;;;;;4436331;32;20128;-64
2022/02/28 07:11:58;;;;;;;3.33;1.27;;;1.80;99.90;;;;;;4429922;32;20073;-65
2022/02/28 07:14:24;;;;;;;1.70;1.60;;;1.90;99.90;;;;;;4435961;32;20065;-65
2022/02/28 07:16:50;;;;;;;1.45;1.35;;;1.90;99.90;;;;;;4430935;32;20165;-65
2022/02/28 07:19:16;;;;;;;0.80;0.80;;;2.00;99.90;;;;;;4428518;32;20081;-65
2022/02/28 07:21:42;;;;;;;0.90;0.90;;;2.00;99.90;;;;;;4421164;32;20097;-65
2022/02/28 07:24:07;;;;;;;1.00;0.88;;;2.00;99.90;;;;;;4430214;32;20521;-65
2022/02/28 07:26:34;;;;;;;4.12;2.30;;;2.00;99.90;;;;;;4433191;32;20077;-65
2022/02/28 07:28:59;;;;;;;2.85;1.87;;;2.00;99.90;;;;;;4430997;32;20144;-66
2022/02/28 07:31:25;;;;;;;1.25;1.15;;;2.00;99.90;;;;;;4436934;32;20140;-65
2022/02/28 07:33:50;;;;;;;1.85;1.50;;;2.00;99.90;;;;;;4434264;32;106674;-65
2022/02/28 07:36:16;;;;;;;1.35;1.25;;;2.00;99.90;;;;;;4434407;32;20069;-65
2022/02/28 07:38:41;;;;;;;1.08;1.08;;;1.90;99.90;;;;;;4431687;32;20061;-65
2022/02/28 07:41:07;;;;;;;0.60;0.60;;;1.80;99.90;;;;;;4433193;32;20224;-66
2022/02/28 07:43:34;;;;;;;0.70;0.70;;;1.80;99.90;;;;;;4425689;32;20105;-66
2022/02/28 07:45:59;;;;;;;1.60;1.27;;;1.90;99.90;;;;;;4428600;32;20131;-66
2022/02/28 07:48:25;;;;;;;1.20;1.10;;;1.90;99.90;;;;;;4415957;32;20069;-65
2022/02/28 07:50:51;;;;;;;1.17;0.90;;;1.80;99.90;;;;;;4411799;32;20505;-66
2022/02/28 07:53:16;;;;;;;0.60;0.60;;;1.80;99.90;;;;;;4404279;32;20118;-66
2022/02/28 07:55:42;;;;;;;1.42;1.33;;;1.80;99.90;;;;;;4418122;32;20077;-65
2022/02/28 07:58:07;;;;;;;3.22;1.80;;;1.80;99.90;;;;;;4416478;32;20600;-65
2022/02/28 08:00:33;;;;;;;1.90;1.05;;;1.90;99.90;;;;;;4414167;32;20124;-65
2022/02/28 08:02:59;;;;;;;6.07;1.87;;;2.00;99.90;;;;;;4424914;32;20142;-65
2022/02/28 08:05:25;;;;;;;0.88;0.88;;;2.00;99.90;;;;;;4429007;32;20513;-66
2022/02/28 08:07:50;;;;;;;0.82;0.82;;;2.20;99.90;;;;;;4425423;32;20109;-65
2022/02/28 08:10:16;;;;;;;0.85;0.85;;;2.00;99.90;;;;;;4424553;32;20455;-65
2022/02/28 08:12:42;;;;;;;3.97;1.12;;;2.00;99.90;;;;;;4418548;32;20154;-65
2022/02/28 08:15:07;;;;;;;2.60;1.33;;;2.00;99.90;;;;;;4423142;32;20537;-66
2022/02/28 08:17:33;;;;;;;0.82;0.82;;;1.90;99.90;;;;;;4422366;32;20426;-66
2022/02/28 08:19:58;;;;;;;1.15;1.08;;;1.90;99.90;;;;;;4419295;32;20155;-66
2022/02/28 08:22:24;;;;;;;8.57;2.20;;;2.00;99.90;;;;;;4428571;32;20349;-66
2022/02/28 08:24:50;;;;;;;2.42;1.87;;;2.00;99.90;;;;;;4430293;32;20105;-65
2022/02/28 08:27:15;;;;;;;1.10;1.00;;;2.00;99.90;;;;;;4433316;32;21796;-65
2022/02/28 08:29:41;;;;;;;1.35;1.25;;;2.20;99.90;;;;;;4423461;32;20791;-66
2022/02/28 08:32:07;;;;;;;0.80;0.80;;;2.10;99.90;;;;;;4425728;32;20073;-66
2022/02/28 08:34:32;;;;;;;2.85;1.42;;;2.10;99.90;;;;;;4425924;32;20851;-65
2022/02/28 08:36:58;;;;;;;1.20;1.15;;;2.20;99.90;;;;;;4428106;32;20450;-65
2022/02/28 08:39:23;;;;;;;1.37;1.30;;;2.20;99.90;;;;;;4426971;32;20069;-65
2022/02/28 08:41:49;;;;;;;1.30;1.02;;;2.50;99.90;;;;;;4427747;32;20068;-65
2022/02/28 08:44:14;;;;;;;3.28;1.17;;;2.50;99.90;;;;;;4422384;32;20456;-66
2022/02/28 08:46:40;;;;;;;1.05;0.98;;;2.60;99.90;;;;;;4424466;32;20097;-66
2022/02/28 08:49:06;;;;;;;1.00;1.00;;;2.70;99.90;;;;;;4426333;32;20175;-66
2022/02/28 08:51:31;;;;;;;5.68;1.08;;;2.80;99.90;;;;;;4425713;32;20785;-66
2022/02/28 08:53:57;;;;;;;2.58;1.37;;;3.10;99.90;;;;;;4424880;32;20074;-66
2022/02/28 08:56:23;;;;;;;1.55;1.45;;;3.00;99.90;;;;;;4423508;32;20084;-66
2022/02/28 08:58:49;;;;;;;3.72;1.37;;;3.00;99.90;;;;;;4427662;32;20548;-66
2022/02/28 09:01:14;;;;;;;3.58;1.73;;;3.00;99.90;;;;;;4426354;32;20123;-66
2022/02/28 09:03:40;;;;;;;1.42;1.23;;;2.80;99.90;;;;;;4423871;32;20090;-66
2022/02/28 09:06:06;;;;;;;1.80;1.65;;;2.90;99.90;;;;;;4424139;32;20084;-66
2022/02/28 09:08:31;;;;;;;3.65;1.77;;;3.20;99.90;;;;;;4428945;32;20142;-66
2022/02/28 09:10:57;;;;;;;2.87;2.00;;;3.20;99.90;;;;;;4420763;32;20467;-66
2022/02/28 09:13:22;;;;;;;1.92;1.45;;;3.10;99.90;;;;;;4423767;32;20081;-66
2022/02/28 09:15:48;;;;;;;1.77;1.55;;;3.30;99.90;;;;;;4424589;32;20072;-66
2022/02/28 09:18:13;;;;;;;2.50;1.50;;;3.40;99.90;;;;;;4422398;32;20101;-66
2022/02/28 09:20:39;;;;;;;6.93;2.83;;;3.60;99.90;;;;;;4428902;32;20381;-66
2022/02/28 09:23:06;;;;;;;1.45;1.35;;;3.90;99.90;;;;;;4427825;32;20098;-65
2022/02/28 09:25:31;;;;;;;0.95;0.95;;;4.10;99.90;;;;;;4420008;32;20104;-65
2022/02/28 09:27:57;;;;;;;2.03;1.52;;;4.30;99.90;;;;;;4426160;32;20136;-65
2022/02/28 09:30:26;;;;;;;1.40;1.30;;;4.50;99.90;;;;;;4425868;32;20085;-66
2022/02/28 09:32:52;;;;;;;1.23;1.12;;;4.70;99.90;;;;;;4424848;32;20459;-65
2022/02/28 09:35:18;;;;;;;1.17;1.10;;;4.60;99.90;;;;;;4432751;32;20135;-65
2022/02/28 09:37:43;;;;;;;0.88;0.88;;;4.70;99.90;;;;;;4429540;32;20446;-65
2022/02/28 09:40:10;;;;;;;2.05;1.55;;;4.70;99.90;;;;;;4425586;32;20149;-66
2022/02/28 09:42:37;;;;;;;1.35;0.80;;;5.00;99.90;;;;;;4428756;32;20201;-66
2022/02/28 09:45:03;;;;;;;1.08;1.00;;;5.20;99.90;;;;;;4427801;32;20374;-66
2022/02/28 09:47:31;;;;;;;0.80;0.80;;;5.30;99.90;;;;;;4417410;32;20068;-66
2022/02/28 09:49:57;;;;;;;1.15;1.08;;;5.40;99.90;;;;;;4429422;32;20168;-66
2022/02/28 09:52:23;;;;;;;2.78;1.70;;;5.30;99.90;;;;;;4432503;32;20120;-66
2022/02/28 09:54:49;;;;;;;0.93;0.88;;;5.00;99.90;;;;;;4427647;32;20112;-67
2022/02/28 09:57:16;;;;;;;1.05;0.98;;;5.20;99.90;;;;;;4423622;32;20077;-66
2022/02/28 09:59:44;;;;;;;0.60;0.60;;;5.10;99.90;;;;;;4427213;32;20161;-66
2022/02/28 10:02:09;;;;;;;1.70;1.20;;;5.00;99.90;;;;;;4424416;32;20089;-66
2022/02/28 10:04:35;;;;;;;0.93;0.93;;;5.30;99.90;;;;;;4429444;32;20223;-66
2022/02/28 10:07:17;;;;;;;1.15;1.00;;;5.30;99.90;;;;;;4425864;32;20097;-66
2022/02/28 10:09:42;;;;;;;0.82;0.82;;;5.30;99.90;;;;;;4428651;32;20085;-65
2022/02/28 10:12:08;;;;;;;1.25;1.15;;;5.60;99.90;;;;;;4420893;32;20747;-67
2022/02/28 10:14:34;;;;;;;1.15;1.12;;;6.10;99.90;;;;;;4423385;32;20873;-66
2022/02/28 10:17:00;;;;;;;0.90;0.90;;;5.90;99.90;;;;;;4420319;32;20268;-66
2022/02/28 10:19:29;;;;;;;1.52;1.33;;;5.70;99.90;;;;;;4427105;32;20159;-66
2022/02/28 10:21:59;;;;;;;1.05;1.02;;;5.70;99.90;;;;;;4425796;32;20088;-65
2022/02/28 10:24:30;;;;;;;3.85;2.08;;;5.70;99.90;;;;;;4427472;32;20459;-66
2022/02/28 10:26:57;;;;;;;1.75;1.40;;;5.80;99.90;;;;;;4424411;32;20120;-65
2022/02/28 10:29:25;;;;;;;0.93;0.93;;;6.20;99.90;;;;;;4425531;32;20438;-66
2022/02/28 10:31:51;;;;;;;7.28;1.55;;;6.30;99.90;;;;;;4427522;32;20497;-66
2022/02/28 10:34:19;;;;;;;3.75;1.00;;;6.10;99.90;;;;;;4425010;32;20076;-64
2022/02/28 10:37:00;;;;;;;1.37;1.27;;;6.00;99.90;;;;;;4429038;32;20612;-65
2022/02/28 10:39:30;;;;;;;4.28;2.83;;;6.10;99.90;;;;;;4410603;32;20455;-65
2022/02/28 10:42:03;;;;;;;2.83;1.23;;;6.60;99.90;;;;;;4427178;32;20065;-66
2022/02/28 10:44:29;;;;;;;1.50;1.23;;;6.70;99.90;;;;;;4428895;32;20069;-66
2022/02/28 10:46:54;;;;;;;1.37;1.08;;;6.90;99.90;;;;;;4433935;32;20090;-66
2022/02/28 10:49:27;;;;;;;4.12;1.23;;;6.80;99.90;;;;;;4432370;32;20140;-66
2022/02/28 10:51:55;;;;;;;1.55;1.45;;;6.60;99.90;;;;;;4425018;32;20511;-66
2022/02/28 10:54:27;;;;;;;1.52;1.25;;;6.50;99.90;;;;;;4425500;32;20094;-66
2022/02/28 10:56:56;;;;;;;4.05;2.15;;;6.10;99.90;;;;;;4420092;32;20062;-67
2022/02/28 10:59:25;;;;;;;4.72;1.55;;;6.10;99.90;;;;;;4432205;32;20089;-66
2022/02/28 11:01:53;;;;;;;1.05;0.90;;;6.30;99.90;;;;;;4433485;32;20108;-66
2022/02/28 11:04:40;;;;;;;2.12;0.98;;;6.60;99.90;;;;;;4425503;32;20212;-66
2022/02/28 11:07:09;;;;;;;0.50;0.50;;;6.20;99.90;;;;;;4416975;32;20246;-66
2022/02/28 11:09:38;;;;;;;3.53;1.08;;;6.30;99.90;;;;;;4424435;32;20403;-66
2022/02/28 11:12:21;;;;;;;0.75;0.75;;;6.90;99.90;;;;;;4418391;32;20102;-66
2022/02/28 11:14:48;;;;;;;0.47;0.47;;;7.10;99.90;;;;;;4430427;32;20818;-67
2022/02/28 11:17:18;;;;;;;0.60;0.60;;;6.80;99.90;;;;;;4427525;32;20080;-66
2022/02/28 11:19:45;;;;;;;1.67;1.00;;;7.10;99.90;;;;;;4430788;32;20119;-66
2022/02/28 11:22:11;;;;;;;3.28;1.48;;;7.20;99.90;;;;;;4424769;32;20383;-66
2022/02/28 11:24:38;;;;;;;0.80;0.80;;;7.20;99.90;;;;;;4427488;32;20089;-66
2022/02/28 11:27:03;;;;;;;6.60;1.75;;;7.10;99.90;;;;;;4426838;32;20135;-66
2022/02/28 11:29:29;;;;;;;0.62;0.62;;;7.20;99.90;;;;;;4430172;32;20136;-66
2022/02/28 11:31:56;;;;;;;1.12;1.05;;;7.50;99.90;;;;;;4428136;32;20154;-66
2022/02/28 11:34:22;;;;;;;4.20;1.02;;;7.70;99.90;;;;;;4425354;32;20566;-66
2022/02/28 11:36:52;;;;;;;2.87;0.70;;;7.70;99.90;;;;;;4428443;32;20600;-66
2022/02/28 11:39:24;;;;;;;1.33;0.98;;;7.90;99.90;;;;;;4426003;32;20069;-66
2022/02/28 11:41:50;;;;;;;2.17;1.25;;;8.10;99.90;;;;;;4408594;32;20085;-66
2022/02/28 11:44:16;;;;;;;0.82;0.82;;;8.40;99.90;;;;;;4422788;32;20109;-66
2022/02/28 11:46:45;;;;;;;1.00;0.98;;;8.40;99.90;;;;;;4430229;32;21024;-66
2022/02/28 11:49:11;;;;;;;1.87;1.55;;;8.60;99.90;;;;;;4429885;32;20708;-65
2022/02/28 11:51:39;;;;;;;3.45;1.27;;;8.80;99.90;;;;;;4430947;32;20085;-66
2022/02/28 11:54:08;;;;;;;0.75;0.75;;;8.80;99.90;;;;;;4430541;32;20074;-66
2022/02/28 11:56:37;;;;;;;1.55;1.15;;;9.30;99.90;;;;;;4431912;32;20084;-66
2022/02/28 11:59:05;;;;;;;0.75;0.75;;;9.80;99.90;;;;;;4424236;32;20069;-66
2022/02/28 12:01:33;;;;;;;7.68;0.95;;;10.10;99.90;;;;;;4429467;32;20124;-66
2022/02/28 12:04:10;;;;;;;0.90;0.90;;;10.10;99.90;;;;;;4429430;32;20085;-66
2022/02/28 12:06:59;;;;;;;4.57;0.75;;;10.10;97.60;;;;;;4413906;32;20565;-66
2022/02/28 12:09:35;;;;;;;0.50;0.50;;;9.70;96.90;;;;;;4420780;32;20389;-66
2022/02/28 12:12:34;;;;;;;0.77;0.73;;;9.80;97.20;;;;;;4428169;32;20393;-66
2022/02/28 12:15:03;;;;;;;4.00;1.05;;;10.00;97.90;;;;;;4433136;32;22327;-66
2022/02/28 12:17:50;;;;;;;1.12;0.77;;;10.30;94.40;;;;;;4428223;32;20149;-66
2022/02/28 12:20:19;;;;;;;1.17;1.05;;;10.10;96.20;;;;;;4418468;32;20081;-66
2022/02/28 12:22:58;;;;;;;2.87;0.90;;;10.50;95.00;;;;;;4416213;32;20144;-66
2022/02/28 12:25:51;;;;;;;1.65;0.93;;;10.80;95.80;;;;;;4426619;32;20447;-66
2022/02/28 12:28:20;;;;;;;5.65;1.33;;;10.90;94.70;;;;;;4419733;32;20076;-66
2022/02/28 12:30:52;;;;;;;12.52;0.80;;;11.40;93.80;;;;;;4431390;32;20064;-66
2022/02/28 12:33:20;;;;;;;3.22;1.33;;;11.60;92.10;;;;;;4429918;32;20460;-67
2022/02/28 12:36:11;;;;;;;1.08;0.88;;;11.40;92.90;;;;;;4409160;32;20077;-66
2022/02/28 12:38:53;;;;;;;;;;;11.20;93.30;;;;;;4413180;32;20192;-66
2022/02/28 12:41:22;;;;;;;2.03;0.60;;;11.30;93.70;;;;;;4415742;32;20010;-66
2022/02/28 12:43:50;;;;;;;0.93;0.90;;;11.70;92.70;;;;;;4410214;32;20081;-66
2022/02/28 12:46:19;;;;;;;1.08;0.75;;;11.30;92.60;;;;;;4433434;32;20419;-66
2022/02/28 12:48:47;;;;;;;0.60;0.60;;;11.70;92.80;;;;;;4418209;32;20061;-66
2022/02/28 12:51:17;;;;;;;0.70;0.70;;;11.90;90.20;;;;;;4433255;32;20069;-66
2022/02/28 12:53:44;;;;;;;0.68;0.68;;;12.40;90.10;;;;;;4416767;32;20065;-66
2022/02/28 12:56:12;;;;;;;0.98;0.98;;;12.60;86.60;;;;;;4427089;32;20138;-66